sensor_id;sensor_type;location;lat;lon;timestamp;P1;durP1;ratioP1;P2;durP2;ratioP2
67675;SDS011;54456;48.436;10.028;2022-09-09T00:00:14;4.80;;;1.80;;
67675;SDS011;54456;48.436;10.028;2022-09-09T00:02:05;5.65;;;2.00;;
67675;SDS011;54456;48.436;10.028;2022-09-09T00:13:37;7.00;;;2.03;;
67675;SDS011;54456;48.436;10.028;2022-09-09T00:15:14;5.82;;;2.00;;
67675;SDS011;54456;48.436;10.028;2022-09-09T00:16:51;6.43;;;2.38;;
67675;SDS011;54456;48.436;10.028;2022-09-09T00:19:08;5.28;;;2.08;;
67675;SDS011;54456;48.436;10.028;2022-09-09T00:23:48;8.52;;;2.20;;
67675;SDS011;54456;48.436;10.028;2022-09-09T00:25:33;7.63;;;2.80;;
67675;SDS011;54456;48.436;10.028;2022-09-09T00:30:55;10.13;;;3.50;;
67675;SDS011;54456;48.436;10.028;2022-09-09T00:32:30;13.23;;;4.25;;
67675;SDS011;54456;48.436;10.028;2022-09-09T00:35:58;10.30;;;3.35;;
67675;SDS011;54456;48.436;10.028;2022-09-09T00:37:30;10.60;;;3.15;;
67675;SDS011;54456;48.436;10.028;2022-09-09T00:39:02;9.82;;;3.13;;
67675;SDS011;54456;48.436;10.028;2022-09-09T00:40:34;7.88;;;3.17;;
67675;SDS011;54456;48.436;10.028;2022-09-09T00:43:46;10.55;;;3.08;;
67675;SDS011;54456;48.436;10.028;2022-09-09T00:52:39;10.13;;;3.00;;
67675;SDS011;54456;48.436;10.028;2022-09-09T00:56:13;10.13;;;3.38;;
67675;SDS011;54456;48.436;10.028;2022-09-09T00:57:46;10.70;;;3.60;;
67675;SDS011;54456;48.436;10.028;2022-09-09T00:59:24;12.18;;;3.13;;
67675;SDS011;54456;48.436;10.028;2022-09-09T01:00:57;8.65;;;3.78;;
67675;SDS011;54456;48.436;10.028;2022-09-09T01:02:39;12.05;;;2.92;;
67675;SDS011;54456;48.436;10.028;2022-09-09T01:04:19;11.50;;;3.40;;
67675;SDS011;54456;48.436;10.028;2022-09-09T01:07:51;11.38;;;3.33;;
67675;SDS011;54456;48.436;10.028;2022-09-09T01:09:23;11.43;;;3.00;;
67675;SDS011;54456;48.436;10.028;2022-09-09T01:10:58;8.80;;;3.20;;
67675;SDS011;54456;48.436;10.028;2022-09-09T01:16:02;8.57;;;3.38;;
67675;SDS011;54456;48.436;10.028;2022-09-09T01:17:35;11.35;;;3.50;;
67675;SDS011;54456;48.436;10.028;2022-09-09T01:19:24;10.00;;;3.20;;
67675;SDS011;54456;48.436;10.028;2022-09-09T01:21:09;10.02;;;3.25;;
67675;SDS011;54456;48.436;10.028;2022-09-09T01:26:46;11.35;;;3.67;;
67675;SDS011;54456;48.436;10.028;2022-09-09T01:28:17;9.50;;;3.33;;
67675;SDS011;54456;48.436;10.028;2022-09-09T01:29:51;11.30;;;3.20;;
67675;SDS011;54456;48.436;10.028;2022-09-09T01:31:26;12.40;;;3.50;;
67675;SDS011;54456;48.436;10.028;2022-09-09T01:32:59;8.10;;;3.63;;
67675;SDS011;54456;48.436;10.028;2022-09-09T01:34:31;12.63;;;3.70;;
67675;SDS011;54456;48.436;10.028;2022-09-09T01:36:12;9.23;;;3.60;;
67675;SDS011;54456;48.436;10.028;2022-09-09T01:37:49;9.25;;;3.70;;
67675;SDS011;54456;48.436;10.028;2022-09-09T01:39:19;12.30;;;3.65;;
67675;SDS011;54456;48.436;10.028;2022-09-09T01:40:51;10.02;;;3.60;;
67675;SDS011;54456;48.436;10.028;2022-09-09T01:42:24;8.32;;;3.30;;
67675;SDS011;54456;48.436;10.028;2022-09-09T01:43:55;8.98;;;3.45;;
67675;SDS011;54456;48.436;10.028;2022-09-09T01:45:25;8.32;;;3.58;;
67675;SDS011;54456;48.436;10.028;2022-09-09T01:46:56;8.15;;;3.10;;
67675;SDS011;54456;48.436;10.028;2022-09-09T01:48:27;8.35;;;3.17;;
67675;SDS011;54456;48.436;10.028;2022-09-09T01:49:58;7.93;;;3.05;;
67675;SDS011;54456;48.436;10.028;2022-09-09T01:51:29;9.13;;;3.40;;
67675;SDS011;54456;48.436;10.028;2022-09-09T01:53:00;8.05;;;3.15;;
67675;SDS011;54456;48.436;10.028;2022-09-09T01:54:32;9.65;;;3.65;;
67675;SDS011;54456;48.436;10.028;2022-09-09T01:56:24;8.82;;;3.00;;
67675;SDS011;54456;48.436;10.028;2022-09-09T02:00:02;9.63;;;3.13;;
67675;SDS011;54456;48.436;10.028;2022-09-09T02:01:45;7.93;;;3.00;;
67675;SDS011;54456;48.436;10.028;2022-09-09T02:03:29;7.88;;;2.90;;
67675;SDS011;54456;48.436;10.028;2022-09-09T02:06:55;7.25;;;2.90;;
67675;SDS011;54456;48.436;10.028;2022-09-09T02:08:28;8.40;;;3.30;;
67675;SDS011;54456;48.436;10.028;2022-09-09T02:12:08;7.43;;;2.90;;
67675;SDS011;54456;48.436;10.028;2022-09-09T02:13:43;8.23;;;2.88;;
67675;SDS011;54456;48.436;10.028;2022-09-09T02:17:08;7.68;;;2.90;;
67675;SDS011;54456;48.436;10.028;2022-09-09T02:18:42;7.47;;;2.78;;
67675;SDS011;54456;48.436;10.028;2022-09-09T02:20:21;8.35;;;3.13;;
67675;SDS011;54456;48.436;10.028;2022-09-09T02:21:56;8.07;;;2.80;;
67675;SDS011;54456;48.436;10.028;2022-09-09T02:23:28;10.35;;;2.95;;
67675;SDS011;54456;48.436;10.028;2022-09-09T02:24:59;8.88;;;3.00;;
67675;SDS011;54456;48.436;10.028;2022-09-09T02:26:30;8.57;;;3.00;;
67675;SDS011;54456;48.436;10.028;2022-09-09T02:28:02;7.10;;;2.70;;
67675;SDS011;54456;48.436;10.028;2022-09-09T02:29:37;9.82;;;3.22;;
67675;SDS011;54456;48.436;10.028;2022-09-09T02:31:11;7.55;;;2.90;;
67675;SDS011;54456;48.436;10.028;2022-09-09T02:32:43;8.50;;;2.70;;
67675;SDS011;54456;48.436;10.028;2022-09-09T02:34:15;7.65;;;2.60;;
67675;SDS011;54456;48.436;10.028;2022-09-09T02:35:46;8.45;;;2.83;;
67675;SDS011;54456;48.436;10.028;2022-09-09T02:37:17;8.38;;;2.97;;
67675;SDS011;54456;48.436;10.028;2022-09-09T02:38:49;8.25;;;2.72;;
67675;SDS011;54456;48.436;10.028;2022-09-09T02:40:22;7.55;;;2.72;;
67675;SDS011;54456;48.436;10.028;2022-09-09T02:41:53;6.77;;;2.83;;
67675;SDS011;54456;48.436;10.028;2022-09-09T02:43:23;8.27;;;2.80;;
67675;SDS011;54456;48.436;10.028;2022-09-09T02:44:54;6.55;;;2.67;;
67675;SDS011;54456;48.436;10.028;2022-09-09T02:48:23;8.40;;;2.97;;
67675;SDS011;54456;48.436;10.028;2022-09-09T02:51:46;9.25;;;2.80;;
67675;SDS011;54456;48.436;10.028;2022-09-09T02:53:29;9.50;;;3.08;;
67675;SDS011;54456;48.436;10.028;2022-09-09T02:55:06;8.13;;;3.10;;
67675;SDS011;54456;48.436;10.028;2022-09-09T02:56:47;9.60;;;3.10;;
67675;SDS011;54456;48.436;10.028;2022-09-09T02:58:23;8.00;;;2.72;;
67675;SDS011;54456;48.436;10.028;2022-09-09T02:59:55;8.68;;;2.97;;
67675;SDS011;54456;48.436;10.028;2022-09-09T03:01:27;9.98;;;3.33;;
67675;SDS011;54456;48.436;10.028;2022-09-09T03:02:57;8.60;;;3.20;;
67675;SDS011;54456;48.436;10.028;2022-09-09T03:04:28;9.32;;;3.17;;
67675;SDS011;54456;48.436;10.028;2022-09-09T03:05:59;9.73;;;2.97;;
67675;SDS011;54456;48.436;10.028;2022-09-09T03:07:30;8.10;;;2.90;;
67675;SDS011;54456;48.436;10.028;2022-09-09T03:09:00;9.10;;;3.03;;
67675;SDS011;54456;48.436;10.028;2022-09-09T03:10:32;7.95;;;2.90;;
67675;SDS011;54456;48.436;10.028;2022-09-09T03:12:03;7.45;;;2.60;;
67675;SDS011;54456;48.436;10.028;2022-09-09T03:13:34;8.00;;;2.33;;
67675;SDS011;54456;48.436;10.028;2022-09-09T03:15:05;9.23;;;2.20;;
67675;SDS011;54456;48.436;10.028;2022-09-09T03:16:36;7.30;;;2.22;;
67675;SDS011;54456;48.436;10.028;2022-09-09T03:18:07;7.95;;;2.35;;
67675;SDS011;54456;48.436;10.028;2022-09-09T03:19:37;8.05;;;2.13;;
67675;SDS011;54456;48.436;10.028;2022-09-09T03:21:08;5.22;;;2.10;;
67675;SDS011;54456;48.436;10.028;2022-09-09T03:22:38;6.97;;;2.17;;
67675;SDS011;54456;48.436;10.028;2022-09-09T03:24:08;6.90;;;2.20;;
67675;SDS011;54456;48.436;10.028;2022-09-09T03:25:39;6.50;;;2.03;;
67675;SDS011;54456;48.436;10.028;2022-09-09T03:27:10;5.30;;;1.70;;
67675;SDS011;54456;48.436;10.028;2022-09-09T03:28:40;9.17;;;3.10;;
67675;SDS011;54456;48.436;10.028;2022-09-09T03:30:11;8.70;;;3.08;;
67675;SDS011;54456;48.436;10.028;2022-09-09T03:31:42;10.57;;;3.47;;
67675;SDS011;54456;48.436;10.028;2022-09-09T03:33:12;6.95;;;2.35;;
67675;SDS011;54456;48.436;10.028;2022-09-09T03:34:44;7.18;;;2.42;;
67675;SDS011;54456;48.436;10.028;2022-09-09T03:36:17;7.90;;;2.15;;
67675;SDS011;54456;48.436;10.028;2022-09-09T03:37:47;7.23;;;2.03;;
67675;SDS011;54456;48.436;10.028;2022-09-09T03:39:18;7.50;;;2.20;;
67675;SDS011;54456;48.436;10.028;2022-09-09T03:40:49;5.88;;;2.17;;
67675;SDS011;54456;48.436;10.028;2022-09-09T03:42:25;5.57;;;2.10;;
67675;SDS011;54456;48.436;10.028;2022-09-09T03:43:55;5.93;;;1.90;;
67675;SDS011;54456;48.436;10.028;2022-09-09T03:45:26;4.70;;;1.90;;
67675;SDS011;54456;48.436;10.028;2022-09-09T03:46:56;6.27;;;1.80;;
67675;SDS011;54456;48.436;10.028;2022-09-09T03:48:27;7.72;;;2.00;;
67675;SDS011;54456;48.436;10.028;2022-09-09T03:49:58;7.50;;;2.33;;
67675;SDS011;54456;48.436;10.028;2022-09-09T03:51:28;6.60;;;1.80;;
67675;SDS011;54456;48.436;10.028;2022-09-09T03:52:58;5.40;;;1.80;;
67675;SDS011;54456;48.436;10.028;2022-09-09T03:54:29;5.97;;;2.20;;
67675;SDS011;54456;48.436;10.028;2022-09-09T03:55:59;8.20;;;2.20;;
67675;SDS011;54456;48.436;10.028;2022-09-09T03:57:30;5.57;;;1.95;;
67675;SDS011;54456;48.436;10.028;2022-09-09T03:59:02;8.40;;;2.28;;
67675;SDS011;54456;48.436;10.028;2022-09-09T04:00:35;8.82;;;2.35;;
67675;SDS011;54456;48.436;10.028;2022-09-09T04:02:06;7.18;;;2.08;;
67675;SDS011;54456;48.436;10.028;2022-09-09T04:03:36;7.28;;;2.40;;
67675;SDS011;54456;48.436;10.028;2022-09-09T04:05:07;8.02;;;2.30;;
67675;SDS011;54456;48.436;10.028;2022-09-09T04:06:37;8.52;;;2.40;;
67675;SDS011;54456;48.436;10.028;2022-09-09T04:08:08;6.40;;;2.20;;
67675;SDS011;54456;48.436;10.028;2022-09-09T04:09:38;6.32;;;2.40;;
67675;SDS011;54456;48.436;10.028;2022-09-09T04:11:09;7.30;;;2.22;;
67675;SDS011;54456;48.436;10.028;2022-09-09T04:12:39;6.63;;;2.35;;
67675;SDS011;54456;48.436;10.028;2022-09-09T04:14:09;6.10;;;2.30;;
67675;SDS011;54456;48.436;10.028;2022-09-09T04:15:40;8.38;;;2.70;;
67675;SDS011;54456;48.436;10.028;2022-09-09T04:17:10;7.53;;;2.60;;
67675;SDS011;54456;48.436;10.028;2022-09-09T04:18:41;5.50;;;2.20;;
67675;SDS011;54456;48.436;10.028;2022-09-09T04:20:11;5.53;;;2.30;;
67675;SDS011;54456;48.436;10.028;2022-09-09T04:21:42;8.93;;;2.70;;
67675;SDS011;54456;48.436;10.028;2022-09-09T04:23:12;7.30;;;2.50;;
67675;SDS011;54456;48.436;10.028;2022-09-09T04:24:43;6.97;;;2.15;;
67675;SDS011;54456;48.436;10.028;2022-09-09T04:26:14;7.83;;;2.40;;
67675;SDS011;54456;48.436;10.028;2022-09-09T04:27:44;7.07;;;2.50;;
67675;SDS011;54456;48.436;10.028;2022-09-09T04:29:14;6.95;;;2.55;;
67675;SDS011;54456;48.436;10.028;2022-09-09T04:30:45;7.13;;;2.33;;
67675;SDS011;54456;48.436;10.028;2022-09-09T04:32:15;7.13;;;2.47;;
67675;SDS011;54456;48.436;10.028;2022-09-09T04:33:46;7.80;;;2.40;;
67675;SDS011;54456;48.436;10.028;2022-09-09T04:35:16;7.18;;;2.30;;
67675;SDS011;54456;48.436;10.028;2022-09-09T04:36:46;8.38;;;2.47;;
67675;SDS011;54456;48.436;10.028;2022-09-09T04:38:17;6.73;;;2.40;;
67675;SDS011;54456;48.436;10.028;2022-09-09T04:39:48;9.93;;;2.53;;
67675;SDS011;54456;48.436;10.028;2022-09-09T04:41:18;7.10;;;2.43;;
67675;SDS011;54456;48.436;10.028;2022-09-09T04:42:48;6.87;;;2.47;;
67675;SDS011;54456;48.436;10.028;2022-09-09T04:44:19;7.85;;;2.40;;
67675;SDS011;54456;48.436;10.028;2022-09-09T04:45:50;6.30;;;2.55;;
67675;SDS011;54456;48.436;10.028;2022-09-09T04:47:21;7.65;;;2.60;;
67675;SDS011;54456;48.436;10.028;2022-09-09T04:48:52;6.27;;;2.37;;
67675;SDS011;54456;48.436;10.028;2022-09-09T04:50:22;7.70;;;2.38;;
67675;SDS011;54456;48.436;10.028;2022-09-09T04:51:53;9.13;;;2.90;;
67675;SDS011;54456;48.436;10.028;2022-09-09T04:53:23;8.02;;;2.75;;
67675;SDS011;54456;48.436;10.028;2022-09-09T04:54:55;7.40;;;2.58;;
67675;SDS011;54456;48.436;10.028;2022-09-09T04:56:25;10.02;;;3.00;;
67675;SDS011;54456;48.436;10.028;2022-09-09T04:58:02;6.78;;;2.88;;
67675;SDS011;54456;48.436;10.028;2022-09-09T04:59:36;10.75;;;3.30;;
67675;SDS011;54456;48.436;10.028;2022-09-09T05:01:07;9.63;;;3.30;;
67675;SDS011;54456;48.436;10.028;2022-09-09T05:02:44;7.32;;;3.10;;
67675;SDS011;54456;48.436;10.028;2022-09-09T05:04:14;8.97;;;3.20;;
67675;SDS011;54456;48.436;10.028;2022-09-09T05:05:46;10.20;;;3.20;;
67675;SDS011;54456;48.436;10.028;2022-09-09T05:07:17;7.32;;;2.80;;
67675;SDS011;54456;48.436;10.028;2022-09-09T05:08:47;7.63;;;2.97;;
67675;SDS011;54456;48.436;10.028;2022-09-09T05:10:19;7.07;;;2.58;;
67675;SDS011;54456;48.436;10.028;2022-09-09T05:11:49;6.27;;;2.60;;
67675;SDS011;54456;48.436;10.028;2022-09-09T05:13:20;8.60;;;2.70;;
67675;SDS011;54456;48.436;10.028;2022-09-09T05:14:51;9.77;;;2.53;;
67675;SDS011;54456;48.436;10.028;2022-09-09T05:16:22;7.88;;;2.90;;
67675;SDS011;54456;48.436;10.028;2022-09-09T05:17:56;12.65;;;3.42;;
67675;SDS011;54456;48.436;10.028;2022-09-09T05:19:30;12.55;;;3.40;;
67675;SDS011;54456;48.436;10.028;2022-09-09T05:21:01;10.52;;;3.85;;
67675;SDS011;54456;48.436;10.028;2022-09-09T05:22:31;10.73;;;2.97;;
67675;SDS011;54456;48.436;10.028;2022-09-09T05:24:01;9.27;;;3.00;;
67675;SDS011;54456;48.436;10.028;2022-09-09T05:25:32;9.52;;;2.97;;
67675;SDS011;54456;48.436;10.028;2022-09-09T05:27:03;7.38;;;2.80;;
67675;SDS011;54456;48.436;10.028;2022-09-09T05:28:35;8.63;;;2.97;;
67675;SDS011;54456;48.436;10.028;2022-09-09T05:30:06;9.32;;;3.00;;
67675;SDS011;54456;48.436;10.028;2022-09-09T05:31:38;8.88;;;3.00;;
67675;SDS011;54456;48.436;10.028;2022-09-09T05:33:09;9.13;;;3.00;;
67675;SDS011;54456;48.436;10.028;2022-09-09T05:34:40;8.40;;;3.30;;
67675;SDS011;54456;48.436;10.028;2022-09-09T05:36:14;11.05;;;3.17;;
67675;SDS011;54456;48.436;10.028;2022-09-09T05:37:50;7.53;;;3.22;;
67675;SDS011;54456;48.436;10.028;2022-09-09T05:39:21;8.45;;;3.60;;
67675;SDS011;54456;48.436;10.028;2022-09-09T05:40:52;10.05;;;3.20;;
67675;SDS011;54456;48.436;10.028;2022-09-09T05:42:22;11.40;;;3.45;;
67675;SDS011;54456;48.436;10.028;2022-09-09T05:43:52;8.83;;;2.80;;
67675;SDS011;54456;48.436;10.028;2022-09-09T05:45:23;7.53;;;2.40;;
67675;SDS011;54456;48.436;10.028;2022-09-09T05:46:53;9.07;;;2.40;;
67675;SDS011;54456;48.436;10.028;2022-09-09T05:48:24;8.02;;;2.53;;
67675;SDS011;54456;48.436;10.028;2022-09-09T05:49:54;9.07;;;3.00;;
67675;SDS011;54456;48.436;10.028;2022-09-09T05:51:26;6.82;;;2.80;;
67675;SDS011;54456;48.436;10.028;2022-09-09T05:52:59;8.80;;;3.17;;
67675;SDS011;54456;48.436;10.028;2022-09-09T05:54:30;7.97;;;3.23;;
67675;SDS011;54456;48.436;10.028;2022-09-09T05:56:07;11.93;;;3.72;;
67675;SDS011;54456;48.436;10.028;2022-09-09T05:57:40;10.20;;;4.28;;
67675;SDS011;54456;48.436;10.028;2022-09-09T05:59:10;10.40;;;4.03;;
67675;SDS011;54456;48.436;10.028;2022-09-09T06:00:42;8.68;;;3.80;;
67675;SDS011;54456;48.436;10.028;2022-09-09T06:02:14;11.43;;;4.22;;
67675;SDS011;54456;48.436;10.028;2022-09-09T06:03:45;13.10;;;4.40;;
67675;SDS011;54456;48.436;10.028;2022-09-09T06:05:16;9.90;;;4.13;;
67675;SDS011;54456;48.436;10.028;2022-09-09T06:06:46;10.13;;;4.28;;
67675;SDS011;54456;48.436;10.028;2022-09-09T06:08:18;8.88;;;3.20;;
67675;SDS011;54456;48.436;10.028;2022-09-09T06:09:48;8.07;;;3.67;;
67675;SDS011;54456;48.436;10.028;2022-09-09T06:11:22;9.20;;;3.40;;
67675;SDS011;54456;48.436;10.028;2022-09-09T06:12:54;8.30;;;3.45;;
67675;SDS011;54456;48.436;10.028;2022-09-09T06:14:24;7.30;;;3.20;;
67675;SDS011;54456;48.436;10.028;2022-09-09T06:15:55;7.90;;;2.80;;
67675;SDS011;54456;48.436;10.028;2022-09-09T06:17:26;7.30;;;2.70;;
67675;SDS011;54456;48.436;10.028;2022-09-09T06:18:56;8.70;;;2.83;;
67675;SDS011;54456;48.436;10.028;2022-09-09T06:20:27;9.18;;;2.88;;
67675;SDS011;54456;48.436;10.028;2022-09-09T06:22:00;7.03;;;2.78;;
67675;SDS011;54456;48.436;10.028;2022-09-09T06:23:30;6.57;;;2.92;;
67675;SDS011;54456;48.436;10.028;2022-09-09T06:25:01;6.75;;;2.70;;
67675;SDS011;54456;48.436;10.028;2022-09-09T06:26:35;9.45;;;2.95;;
67675;SDS011;54456;48.436;10.028;2022-09-09T06:28:10;7.00;;;2.60;;
67675;SDS011;54456;48.436;10.028;2022-09-09T06:29:41;7.00;;;2.70;;
67675;SDS011;54456;48.436;10.028;2022-09-09T06:31:11;8.07;;;2.80;;
67675;SDS011;54456;48.436;10.028;2022-09-09T06:32:42;7.57;;;2.63;;
67675;SDS011;54456;48.436;10.028;2022-09-09T06:34:13;7.10;;;2.80;;
67675;SDS011;54456;48.436;10.028;2022-09-09T06:35:50;8.87;;;2.97;;
67675;SDS011;54456;48.436;10.028;2022-09-09T06:37:23;6.15;;;2.70;;
67675;SDS011;54456;48.436;10.028;2022-09-09T06:38:54;7.13;;;2.75;;
67675;SDS011;54456;48.436;10.028;2022-09-09T06:40:24;9.38;;;2.80;;
67675;SDS011;54456;48.436;10.028;2022-09-09T06:41:55;6.93;;;2.55;;
67675;SDS011;54456;48.436;10.028;2022-09-09T06:43:25;6.63;;;2.65;;
67675;SDS011;54456;48.436;10.028;2022-09-09T06:44:56;6.22;;;2.70;;
67675;SDS011;54456;48.436;10.028;2022-09-09T06:46:27;7.70;;;2.40;;
67675;SDS011;54456;48.436;10.028;2022-09-09T06:48:00;7.63;;;2.85;;
67675;SDS011;54456;48.436;10.028;2022-09-09T06:49:32;6.03;;;2.40;;
67675;SDS011;54456;48.436;10.028;2022-09-09T06:51:06;6.75;;;2.38;;
67675;SDS011;54456;48.436;10.028;2022-09-09T06:52:38;6.93;;;2.58;;
67675;SDS011;54456;48.436;10.028;2022-09-09T06:54:08;7.00;;;2.50;;
67675;SDS011;54456;48.436;10.028;2022-09-09T06:55:39;7.35;;;2.55;;
67675;SDS011;54456;48.436;10.028;2022-09-09T06:57:14;6.68;;;2.50;;
67675;SDS011;54456;48.436;10.028;2022-09-09T06:58:44;7.78;;;2.42;;
67675;SDS011;54456;48.436;10.028;2022-09-09T07:00:15;6.05;;;2.40;;
67675;SDS011;54456;48.436;10.028;2022-09-09T07:01:45;7.50;;;2.58;;
67675;SDS011;54456;48.436;10.028;2022-09-09T07:03:18;7.15;;;2.65;;
67675;SDS011;54456;48.436;10.028;2022-09-09T07:04:48;6.97;;;2.20;;
67675;SDS011;54456;48.436;10.028;2022-09-09T07:06:25;5.82;;;2.42;;
67675;SDS011;54456;48.436;10.028;2022-09-09T07:07:55;7.25;;;2.72;;
67675;SDS011;54456;48.436;10.028;2022-09-09T07:09:26;4.90;;;1.70;;
67675;SDS011;54456;48.436;10.028;2022-09-09T07:11:03;5.15;;;1.90;;
67675;SDS011;54456;48.436;10.028;2022-09-09T07:12:35;6.35;;;1.90;;
67675;SDS011;54456;48.436;10.028;2022-09-09T07:14:05;5.07;;;1.73;;
67675;SDS011;54456;48.436;10.028;2022-09-09T07:15:35;4.78;;;1.88;;
67675;SDS011;54456;48.436;10.028;2022-09-09T07:17:06;4.27;;;1.60;;
67675;SDS011;54456;48.436;10.028;2022-09-09T07:18:36;4.72;;;1.70;;
67675;SDS011;54456;48.436;10.028;2022-09-09T07:20:06;4.05;;;1.90;;
67675;SDS011;54456;48.436;10.028;2022-09-09T07:21:37;5.85;;;1.92;;
67675;SDS011;54456;48.436;10.028;2022-09-09T07:23:08;3.83;;;1.75;;
67675;SDS011;54456;48.436;10.028;2022-09-09T07:24:38;5.35;;;1.80;;
67675;SDS011;54456;48.436;10.028;2022-09-09T07:26:09;7.38;;;1.73;;
67675;SDS011;54456;48.436;10.028;2022-09-09T07:27:44;6.30;;;1.65;;
67675;SDS011;54456;48.436;10.028;2022-09-09T07:29:14;4.88;;;1.70;;
67675;SDS011;54456;48.436;10.028;2022-09-09T07:30:58;5.23;;;1.63;;
67675;SDS011;54456;48.436;10.028;2022-09-09T07:32:29;6.05;;;1.50;;
67675;SDS011;54456;48.436;10.028;2022-09-09T07:34:00;5.03;;;1.90;;
67675;SDS011;54456;48.436;10.028;2022-09-09T07:35:30;4.88;;;1.60;;
67675;SDS011;54456;48.436;10.028;2022-09-09T07:37:01;5.72;;;1.95;;
67675;SDS011;54456;48.436;10.028;2022-09-09T07:38:31;4.88;;;2.20;;
67675;SDS011;54456;48.436;10.028;2022-09-09T07:40:02;4.57;;;1.80;;
67675;SDS011;54456;48.436;10.028;2022-09-09T07:41:37;6.43;;;2.05;;
67675;SDS011;54456;48.436;10.028;2022-09-09T07:43:09;5.95;;;1.90;;
67675;SDS011;54456;48.436;10.028;2022-09-09T07:44:40;6.18;;;1.80;;
67675;SDS011;54456;48.436;10.028;2022-09-09T07:46:11;5.23;;;1.90;;
67675;SDS011;54456;48.436;10.028;2022-09-09T07:47:42;5.72;;;1.80;;
67675;SDS011;54456;48.436;10.028;2022-09-09T07:49:13;4.90;;;1.70;;
67675;SDS011;54456;48.436;10.028;2022-09-09T07:50:44;5.28;;;1.80;;
67675;SDS011;54456;48.436;10.028;2022-09-09T07:52:14;4.10;;;1.80;;
67675;SDS011;54456;48.436;10.028;2022-09-09T07:53:46;7.43;;;1.77;;
67675;SDS011;54456;48.436;10.028;2022-09-09T07:55:17;6.15;;;2.17;;
67675;SDS011;54456;48.436;10.028;2022-09-09T07:56:47;5.80;;;1.63;;
67675;SDS011;54456;48.436;10.028;2022-09-09T07:58:19;5.68;;;2.10;;
67675;SDS011;54456;48.436;10.028;2022-09-09T07:59:49;7.20;;;2.03;;
67675;SDS011;54456;48.436;10.028;2022-09-09T08:01:22;5.28;;;2.13;;
67675;SDS011;54456;48.436;10.028;2022-09-09T08:02:52;4.55;;;1.90;;
67675;SDS011;54456;48.436;10.028;2022-09-09T08:04:24;4.20;;;1.90;;
67675;SDS011;54456;48.436;10.028;2022-09-09T08:05:59;4.80;;;1.98;;
67675;SDS011;54456;48.436;10.028;2022-09-09T08:07:31;6.28;;;1.83;;
67675;SDS011;54456;48.436;10.028;2022-09-09T08:09:02;4.78;;;1.88;;
67675;SDS011;54456;48.436;10.028;2022-09-09T08:10:32;7.45;;;2.33;;
67675;SDS011;54456;48.436;10.028;2022-09-09T08:12:03;6.53;;;2.55;;
67675;SDS011;54456;48.436;10.028;2022-09-09T08:13:35;5.80;;;2.65;;
67675;SDS011;54456;48.436;10.028;2022-09-09T08:15:06;6.43;;;2.85;;
67675;SDS011;54456;48.436;10.028;2022-09-09T08:16:38;6.93;;;2.80;;
67675;SDS011;54456;48.436;10.028;2022-09-09T08:18:10;6.05;;;2.50;;
67675;SDS011;54456;48.436;10.028;2022-09-09T08:19:40;9.53;;;2.90;;
67675;SDS011;54456;48.436;10.028;2022-09-09T08:21:12;7.03;;;2.65;;
67675;SDS011;54456;48.436;10.028;2022-09-09T08:22:43;7.28;;;2.97;;
67675;SDS011;54456;48.436;10.028;2022-09-09T08:24:13;8.18;;;3.08;;
67675;SDS011;54456;48.436;10.028;2022-09-09T08:25:45;7.18;;;3.17;;
67675;SDS011;54456;48.436;10.028;2022-09-09T08:27:15;6.90;;;3.35;;
67675;SDS011;54456;48.436;10.028;2022-09-09T08:28:45;5.90;;;3.40;;
67675;SDS011;54456;48.436;10.028;2022-09-09T08:30:16;6.90;;;3.40;;
67675;SDS011;54456;48.436;10.028;2022-09-09T08:31:47;8.48;;;3.78;;
67675;SDS011;54456;48.436;10.028;2022-09-09T08:33:18;9.05;;;3.42;;
67675;SDS011;54456;48.436;10.028;2022-09-09T08:34:49;5.72;;;2.70;;
67675;SDS011;54456;48.436;10.028;2022-09-09T08:36:21;7.68;;;3.08;;
67675;SDS011;54456;48.436;10.028;2022-09-09T08:37:54;7.45;;;3.30;;
67675;SDS011;54456;48.436;10.028;2022-09-09T08:39:25;6.07;;;3.00;;
67675;SDS011;54456;48.436;10.028;2022-09-09T08:40:57;7.10;;;3.22;;
67675;SDS011;54456;48.436;10.028;2022-09-09T08:42:49;6.68;;;3.20;;
67675;SDS011;54456;48.436;10.028;2022-09-09T08:48:36;8.45;;;3.40;;
67675;SDS011;54456;48.436;10.028;2022-09-09T08:51:52;6.13;;;3.42;;
67675;SDS011;54456;48.436;10.028;2022-09-09T08:53:28;6.40;;;3.22;;
67675;SDS011;54456;48.436;10.028;2022-09-09T08:56:55;9.48;;;3.40;;
67675;SDS011;54456;48.436;10.028;2022-09-09T08:58:32;9.23;;;3.67;;
67675;SDS011;54456;48.436;10.028;2022-09-09T09:00:03;6.20;;;3.20;;
67675;SDS011;54456;48.436;10.028;2022-09-09T09:01:55;6.43;;;3.20;;
67675;SDS011;54456;48.436;10.028;2022-09-09T09:07:18;6.53;;;2.88;;
67675;SDS011;54456;48.436;10.028;2022-09-09T09:11:00;5.75;;;2.40;;
67675;SDS011;54456;48.436;10.028;2022-09-09T09:12:41;5.18;;;2.03;;
67675;SDS011;54456;48.436;10.028;2022-09-09T09:14:27;6.13;;;2.20;;
67675;SDS011;54456;48.436;10.028;2022-09-09T09:17:32;5.18;;;2.05;;
67675;SDS011;54456;48.436;10.028;2022-09-09T09:19:03;4.53;;;2.00;;
67675;SDS011;54456;48.436;10.028;2022-09-09T09:20:46;5.25;;;1.90;;
67675;SDS011;54456;48.436;10.028;2022-09-09T09:23:55;4.68;;;1.73;;
67675;SDS011;54456;48.436;10.028;2022-09-09T09:25:31;5.47;;;1.65;;
67675;SDS011;54456;48.436;10.028;2022-09-09T09:27:07;6.95;;;1.92;;
67675;SDS011;54456;48.436;10.028;2022-09-09T09:28:44;5.43;;;1.80;;
67675;SDS011;54456;48.436;10.028;2022-09-09T09:31:53;4.35;;;1.45;;
67675;SDS011;54456;48.436;10.028;2022-09-09T09:35:06;4.00;;;1.65;;
67675;SDS011;54456;48.436;10.028;2022-09-09T09:38:18;5.38;;;1.73;;
67675;SDS011;54456;48.436;10.028;2022-09-09T09:41:57;5.30;;;1.50;;
67675;SDS011;54456;48.436;10.028;2022-09-09T09:43:30;4.72;;;1.80;;
67675;SDS011;54456;48.436;10.028;2022-09-09T09:47:16;5.68;;;1.67;;
67675;SDS011;54456;48.436;10.028;2022-09-09T09:49:00;5.90;;;1.52;;
67675;SDS011;54456;48.436;10.028;2022-09-09T09:50:32;4.05;;;1.55;;
67675;SDS011;54456;48.436;10.028;2022-09-09T09:52:03;6.10;;;1.50;;
67675;SDS011;54456;48.436;10.028;2022-09-09T09:53:34;5.50;;;1.40;;
67675;SDS011;54456;48.436;10.028;2022-09-09T09:55:11;4.80;;;1.42;;
67675;SDS011;54456;48.436;10.028;2022-09-09T09:56:43;4.20;;;1.58;;
67675;SDS011;54456;48.436;10.028;2022-09-09T09:58:15;4.20;;;1.35;;
67675;SDS011;54456;48.436;10.028;2022-09-09T09:59:45;4.82;;;1.42;;
67675;SDS011;54456;48.436;10.028;2022-09-09T10:02:59;5.07;;;1.50;;
67675;SDS011;54456;48.436;10.028;2022-09-09T10:04:29;3.88;;;1.42;;
67675;SDS011;54456;48.436;10.028;2022-09-09T10:06:00;6.00;;;1.63;;
67675;SDS011;54456;48.436;10.028;2022-09-09T10:07:30;6.53;;;1.60;;
67675;SDS011;54456;48.436;10.028;2022-09-09T10:09:03;4.03;;;1.75;;
67675;SDS011;54456;48.436;10.028;2022-09-09T10:14:34;3.03;;;1.30;;
67675;SDS011;54456;48.436;10.028;2022-09-09T10:16:15;3.45;;;1.30;;
67675;SDS011;54456;48.436;10.028;2022-09-09T10:18:30;5.22;;;1.42;;
67675;SDS011;54456;48.436;10.028;2022-09-09T10:20:27;3.90;;;1.30;;
67675;SDS011;54456;48.436;10.028;2022-09-09T10:22:11;4.82;;;1.30;;
67675;SDS011;54456;48.436;10.028;2022-09-09T10:31:30;4.57;;;1.25;;
67675;SDS011;54456;48.436;10.028;2022-09-09T10:33:09;4.95;;;1.30;;
67675;SDS011;54456;48.436;10.028;2022-09-09T10:39:47;5.28;;;1.30;;
67675;SDS011;54456;48.436;10.028;2022-09-09T10:41:36;3.85;;;1.20;;
67675;SDS011;54456;48.436;10.028;2022-09-09T10:43:20;2.67;;;1.20;;
67675;SDS011;54456;48.436;10.028;2022-09-09T10:45:17;4.05;;;1.40;;
67675;SDS011;54456;48.436;10.028;2022-09-09T10:50:14;4.10;;;1.67;;